createdAt,value
2023-01-19T00:01:28.301Z,97439.44
2023-01-19T00:03:55.729Z,97440.84
2023-01-19T00:06:22.971Z,97435.81
2023-01-19T00:08:52.903Z,97432.66
2023-01-19T00:11:20.391Z,97438.84
2023-01-19T00:13:50.676Z,97446.28
2023-01-19T00:16:18.403Z,97438.34
2023-01-19T00:18:45.957Z,97440.59
2023-01-19T00:21:14.810Z,97439.59
2023-01-19T00:23:42.680Z,97429.88
2023-01-19T00:26:10.738Z,97438.56
2023-01-19T00:28:37.956Z,97431.72
2023-01-19T00:31:05.793Z,97428.97
2023-01-19T00:33:33.281Z,97430.31
2023-01-19T00:36:00.434Z,97429.69
2023-01-19T00:38:27.565Z,97432.37
2023-01-19T00:40:55.009Z,97425.41
2023-01-19T00:43:22.159Z,97422.06
2023-01-19T00:45:49.371Z,97428.44
2023-01-19T00:48:16.880Z,97423.53
2023-01-19T00:50:44.035Z,97417.13
2023-01-19T00:53:11.242Z,97418.91
2023-01-19T00:55:38.666Z,97417.59
2023-01-19T00:58:07.276Z,97431.28
2023-01-19T01:00:34.523Z,97416.87
2023-01-19T01:03:02.535Z,97423.13
2023-01-19T01:05:30.008Z,97421.84
2023-01-19T01:07:57.244Z,97426.53
2023-01-19T01:10:25.785Z,97425.44
2023-01-19T01:12:57.399Z,97425.87
2023-01-19T01:15:26.519Z,97424.91
2023-01-19T01:17:53.817Z,97426.31
2023-01-19T01:20:22.094Z,97449.00
2023-01-19T01:22:50.570Z,97439.84
2023-01-19T01:25:18.429Z,97436.72
2023-01-19T01:27:45.576Z,97425.13
2023-01-19T01:30:13.532Z,97429.44
2023-01-19T01:32:41.051Z,97435.69
2023-01-19T01:35:09.140Z,97431.09
2023-01-19T01:37:36.911Z,97439.47
2023-01-19T01:40:04.717Z,97443.03
2023-01-19T01:42:32.348Z,97446.72
2023-01-19T01:45:02.019Z,97452.41
2023-01-19T01:47:42.985Z,97462.63
2023-01-19T01:50:17.826Z,97454.34
2023-01-19T01:53:07.987Z,97460.25
2023-01-19T01:55:36.818Z,97460.97
2023-01-19T01:58:04.149Z,97474.94
2023-01-19T02:00:54.654Z,97478.13
2023-01-19T02:03:25.393Z,97488.09
2023-01-19T02:05:53.679Z,97499.47
2023-01-19T02:08:47.190Z,97498.38
2023-01-19T02:11:33.404Z,97494.47
2023-01-19T02:14:00.569Z,97471.59
2023-01-19T02:16:28.018Z,97442.31
2023-01-19T02:18:55.168Z,97417.44
2023-01-19T02:21:23.248Z,97426.06
2023-01-19T02:23:51.539Z,97433.25
2023-01-19T02:26:22.735Z,97459.03
2023-01-19T02:28:52.851Z,97469.81
2023-01-19T02:31:20.359Z,97482.72
2023-01-19T02:33:47.527Z,97483.97
2023-01-19T02:36:15.261Z,97479.78
2023-01-19T02:38:42.903Z,97459.81
2023-01-19T02:41:10.065Z,97450.03
2023-01-19T02:43:37.225Z,97456.59
2023-01-19T02:46:08.795Z,97453.56
2023-01-19T02:48:36.071Z,97446.19
2023-01-19T02:51:23.442Z,97438.44
2023-01-19T02:53:58.796Z,97453.22
2023-01-19T02:56:39.594Z,97448.66
2023-01-19T02:59:07.129Z,97444.78
2023-01-19T03:01:38.863Z,97460.28
2023-01-19T03:04:23.147Z,97460.19
2023-01-19T03:06:52.662Z,97452.09
2023-01-19T03:09:41.449Z,97458.69
2023-01-19T03:12:08.584Z,97452.78
2023-01-19T03:14:37.362Z,97465.84
2023-01-19T03:17:05.126Z,97471.19
2023-01-19T03:19:33.414Z,97492.91
2023-01-19T03:22:03.292Z,97483.00
2023-01-19T03:24:31.300Z,97489.31
2023-01-19T03:27:03.096Z,97466.94
2023-01-19T03:29:31.794Z,97437.91
2023-01-19T03:31:59.888Z,97418.13
2023-01-19T03:34:27.106Z,97415.44
2023-01-19T03:36:58.368Z,97416.38
2023-01-19T03:39:25.868Z,97418.47
2023-01-19T03:41:54.503Z,97412.84
2023-01-19T03:44:22.367Z,97395.69
2023-01-19T03:46:50.398Z,97400.19
2023-01-19T03:49:17.567Z,97387.25
2023-01-19T03:51:44.996Z,97397.84
2023-01-19T03:54:12.144Z,97395.94
2023-01-19T03:56:39.337Z,97397.13
2023-01-19T03:59:07.005Z,97403.75
2023-01-19T04:01:34.447Z,97430.06
2023-01-19T04:04:01.907Z,97462.53
2023-01-19T04:06:29.073Z,97479.75
2023-01-19T04:08:56.316Z,97466.19
2023-01-19T04:11:23.804Z,97463.84
2023-01-19T04:13:51.704Z,97482.53
2023-01-19T04:16:21.147Z,97483.91
2023-01-19T04:18:49.211Z,97475.66
2023-01-19T04:21:16.675Z,97475.75
2023-01-19T04:23:44.480Z,97467.16
2023-01-19T04:26:12.106Z,97456.22
2023-01-19T04:28:39.416Z,97452.22
2023-01-19T04:31:07.949Z,97446.91
2023-01-19T04:33:35.495Z,97445.19
2023-01-19T04:36:04.095Z,97456.78
2023-01-19T04:38:31.341Z,97450.50
2023-01-19T04:40:58.958Z,97450.53
2023-01-19T04:43:26.148Z,97444.53
2023-01-19T04:45:53.342Z,97443.59
2023-01-19T04:48:20.790Z,97452.22
2023-01-19T04:50:47.923Z,97442.56
2023-01-19T04:53:16.326Z,97479.75
2023-01-19T04:55:43.887Z,97474.47
2023-01-19T04:58:11.060Z,97472.44
2023-01-19T05:00:38.206Z,97472.00
2023-01-19T05:03:06.141Z,97476.31
2023-01-19T05:05:33.465Z,97486.56
2023-01-19T05:08:00.762Z,97471.00
2023-01-19T05:10:28.276Z,97466.81
2023-01-19T05:12:55.507Z,97453.13
2023-01-19T05:15:22.807Z,97456.44
2023-01-19T05:17:50.274Z,97471.94
2023-01-19T05:20:17.574Z,97486.31
2023-01-19T05:22:51.113Z,97505.06
2023-01-19T05:25:18.915Z,97512.22
2023-01-19T05:27:46.415Z,97524.09
2023-01-19T05:30:13.675Z,97534.28
2023-01-19T05:32:41.279Z,97542.72
2023-01-19T05:35:08.664Z,97532.03
2023-01-19T05:37:35.818Z,97521.12
2023-01-19T05:40:03.362Z,97515.81
2023-01-19T05:42:32.900Z,97514.63
2023-01-19T05:45:00.264Z,97505.28
2023-01-19T05:47:30.527Z,97506.41
2023-01-19T05:49:57.988Z,97500.75
2023-01-19T05:52:25.208Z,97505.44
2023-01-19T05:54:54.634Z,97508.47
2023-01-19T05:57:22.129Z,97498.19
2023-01-19T05:59:49.272Z,97505.50
2023-01-19T06:02:19.040Z,97496.91
2023-01-19T06:04:46.486Z,97505.50
2023-01-19T06:07:13.643Z,97504.31
2023-01-19T06:09:40.845Z,97507.63
2023-01-19T06:12:08.390Z,97500.34
2023-01-19T06:14:37.012Z,97472.34
2023-01-19T06:17:06.072Z,97478.25
2023-01-19T06:19:34.659Z,97478.56
2023-01-19T06:22:02.843Z,97467.38
2023-01-19T06:24:30.157Z,97453.06
2023-01-19T06:26:57.609Z,97445.06
2023-01-19T06:29:25.469Z,97447.94
2023-01-19T06:31:52.771Z,97453.91
2023-01-19T06:34:20.372Z,97462.47
2023-01-19T06:36:47.554Z,97488.00
2023-01-19T06:39:14.736Z,97504.97
2023-01-19T06:41:42.207Z,97509.78
2023-01-19T06:44:09.356Z,97512.03
2023-01-19T06:46:36.480Z,97526.69
2023-01-19T06:49:04.064Z,97517.22
2023-01-19T06:51:31.221Z,97513.34
2023-01-19T06:53:59.082Z,97501.84
2023-01-19T06:56:26.539Z,97485.53
2023-01-19T06:58:54.649Z,97500.34
2023-01-19T07:01:21.919Z,97494.34
2023-01-19T07:04:08.381Z,97494.34
2023-01-19T07:06:35.518Z,97485.72
2023-01-19T07:09:07.043Z,97496.88
2023-01-19T07:11:34.183Z,97491.75
2023-01-19T07:14:01.319Z,97494.34
2023-01-19T07:16:28.860Z,97494.03
2023-01-19T07:18:56.056Z,97492.25
2023-01-19T07:21:23.392Z,97510.28
2023-01-19T07:23:51.415Z,97517.22
2023-01-19T07:26:21.194Z,97522.69
2023-01-19T07:28:48.696Z,97526.81
2023-01-19T07:31:16.498Z,97535.31
2023-01-19T07:33:43.883Z,97539.22
2023-01-19T07:36:11.048Z,97532.22
2023-01-19T07:38:38.456Z,97532.16
2023-01-19T07:41:06.406Z,97534.03
2023-01-19T07:43:33.981Z,97534.31
2023-01-19T07:46:03.453Z,97542.13
2023-01-19T07:48:30.623Z,97544.31
2023-01-19T07:51:13.102Z,97543.47
2023-01-19T07:53:41.927Z,97545.47
2023-01-19T07:56:09.384Z,97548.84
2023-01-19T07:58:36.550Z,97558.47
2023-01-19T08:01:10.865Z,97554.31
2023-01-19T08:03:38.613Z,97550.66
2023-01-19T08:06:06.171Z,97556.47
2023-01-19T08:08:33.586Z,97547.84
2023-01-19T08:11:01.057Z,97535.09
2023-01-19T08:13:28.292Z,97525.94
2023-01-19T08:15:55.559Z,97532.03
2023-01-19T08:18:22.997Z,97529.25
2023-01-19T08:20:50.207Z,97522.19
2023-01-19T08:23:18.289Z,97526.69
2023-01-19T08:25:46.023Z,97534.34
2023-01-19T08:28:14.169Z,97525.56
2023-01-19T08:30:43.605Z,97519.69
2023-01-19T08:33:14.347Z,97524.63
2023-01-19T08:35:42.175Z,97533.53
2023-01-19T08:38:09.813Z,97544.91
2023-01-19T08:40:38.159Z,97551.41
2023-01-19T08:43:09.195Z,97555.34
2023-01-19T08:45:37.111Z,97555.28
2023-01-19T08:48:04.572Z,97554.47
2023-01-19T08:50:32.228Z,97549.28
2023-01-19T08:53:00.659Z,97546.75
2023-01-19T08:55:28.390Z,97551.03
2023-01-19T08:57:57.961Z,97550.84
2023-01-19T09:00:26.972Z,97552.66
2023-01-19T09:02:54.431Z,97552.50
2023-01-19T09:05:21.795Z,97538.16
2023-01-19T09:07:49.512Z,97537.22
2023-01-19T09:10:16.860Z,97534.31
2023-01-19T09:12:44.995Z,97551.66
2023-01-19T09:15:13.942Z,97563.84
2023-01-19T09:17:44.302Z,97564.75
2023-01-19T09:20:11.572Z,97556.91
2023-01-19T09:22:39.684Z,97568.22
2023-01-19T09:25:07.581Z,97562.22
2023-01-19T09:27:34.982Z,97555.31
2023-01-19T09:30:02.965Z,97549.28
2023-01-19T09:32:30.129Z,97538.16
2023-01-19T09:34:57.539Z,97552.75
2023-01-19T09:37:24.976Z,97561.28
2023-01-19T09:39:52.163Z,97556.03
2023-01-19T09:42:40.235Z,97553.56
2023-01-19T09:45:07.992Z,97552.75
2023-01-19T09:47:35.181Z,97554.47
2023-01-19T09:50:05.140Z,97551.03
2023-01-19T09:52:33.221Z,97558.75
2023-01-19T09:55:00.412Z,97552.72
2023-01-19T09:57:27.708Z,97567.94
2023-01-19T09:59:59.563Z,97562.13
2023-01-19T10:02:28.679Z,97561.34
2023-01-19T10:05:03.066Z,97561.28
2023-01-19T10:08:03.579Z,97565.62
2023-01-19T10:10:31.734Z,97564.72
2023-01-19T10:13:17.452Z,97562.09
2023-01-19T10:16:00.330Z,97570.47
2023-01-19T10:18:47.861Z,97572.00
2023-01-19T10:21:16.815Z,97574.72
2023-01-19T10:23:50.635Z,97570.69
2023-01-19T10:26:20.509Z,97567.31
2023-01-19T10:28:48.568Z,97569.81
2023-01-19T10:31:16.848Z,97569.09
2023-01-19T10:33:44.413Z,97583.53
2023-01-19T10:36:19.009Z,97581.00
2023-01-19T10:38:47.010Z,97576.53
2023-01-19T10:41:28.848Z,97579.38
2023-01-19T10:44:01.101Z,97585.41
2023-01-19T10:46:28.243Z,97584.47
2023-01-19T10:48:55.727Z,97584.53
2023-01-19T10:51:23.411Z,97590.53
2023-01-19T10:54:01.017Z,97589.56
2023-01-19T10:56:30.397Z,97597.38
2023-01-19T10:58:58.970Z,97596.53
2023-01-19T11:01:27.568Z,97597.44
2023-01-19T11:03:57.085Z,97598.19
2023-01-19T11:06:26.085Z,97590.47
2023-01-19T11:08:53.926Z,97593.13
2023-01-19T11:11:21.753Z,97594.66
2023-01-19T11:14:06.887Z,97586.88
2023-01-19T11:16:34.876Z,97597.34
2023-01-19T11:19:03.226Z,97587.13
2023-01-19T11:21:30.531Z,97579.38
2023-01-19T11:23:59.143Z,97582.75
2023-01-19T11:26:29.890Z,97582.84
2023-01-19T11:28:57.948Z,97587.84
2023-01-19T11:31:33.469Z,97583.63
2023-01-19T11:34:01.752Z,97591.41
2023-01-19T11:36:32.909Z,97587.09
2023-01-19T11:39:12.567Z,97594.00
2023-01-19T11:41:39.721Z,97595.69
2023-01-19T11:44:10.221Z,97594.84
2023-01-19T11:46:37.903Z,97593.16
2023-01-19T11:49:05.565Z,97600.03
2023-01-19T11:51:40.197Z,97592.25
2023-01-19T11:54:19.417Z,97600.00
2023-01-19T11:56:47.634Z,97596.53
2023-01-19T11:59:14.759Z,97603.28
2023-01-19T12:01:44.911Z,97606.19
2023-01-19T12:04:15.789Z,97611.88
2023-01-19T12:06:50.268Z,97617.53
2023-01-19T12:09:19.782Z,97621.53
2023-01-19T12:11:49.192Z,97627.12
2023-01-19T12:14:20.464Z,97625.13
2023-01-19T12:16:48.734Z,97625.59
2023-01-19T12:19:16.969Z,97639.00
2023-01-19T12:21:44.593Z,97641.19
2023-01-19T12:24:13.713Z,97649.50
2023-01-19T12:26:43.630Z,97651.13
2023-01-19T12:29:14.302Z,97654.34
2023-01-19T12:31:43.132Z,97655.47
2023-01-19T12:34:27.194Z,97663.16
2023-01-19T12:36:54.612Z,97660.84
2023-01-19T12:39:22.059Z,97670.22
2023-01-19T12:41:51.093Z,97661.78
2023-01-19T12:44:22.815Z,97656.66
2023-01-19T12:47:07.606Z,97671.78
2023-01-19T12:49:38.036Z,97682.38
2023-01-19T12:52:22.207Z,97676.34
2023-01-19T12:54:50.889Z,97692.00
2023-01-19T12:57:22.905Z,97673.44
2023-01-19T13:00:00.676Z,97692.84
2023-01-19T13:02:27.934Z,97689.59
2023-01-19T13:05:07.344Z,97695.69
2023-01-19T13:07:52.871Z,97704.06
2023-01-19T13:10:38.987Z,97717.31
2023-01-19T13:13:14.991Z,97718.03
2023-01-19T13:15:43.410Z,97721.47
2023-01-19T13:18:10.997Z,97727.22
2023-01-19T13:20:44.944Z,97722.59
2023-01-19T13:23:18.712Z,97728.00
2023-01-19T13:25:49.830Z,97743.91
2023-01-19T13:28:17.703Z,97738.66
2023-01-19T13:30:50.383Z,97740.03
2023-01-19T13:33:19.831Z,97752.06
2023-01-19T13:35:51.444Z,97764.53
2023-01-19T13:38:18.903Z,97773.44
2023-01-19T13:40:46.056Z,97767.72
2023-01-19T13:43:18.251Z,97783.69
2023-01-19T13:45:51.121Z,97781.88
2023-01-19T13:48:22.141Z,97784.22
2023-01-19T13:50:56.518Z,97781.47
2023-01-19T13:53:24.395Z,97799.47
2023-01-19T13:56:10.440Z,97805.91
2023-01-19T13:58:37.586Z,97799.53
2023-01-19T14:01:05.104Z,97795.66
2023-01-19T14:03:32.677Z,97789.94
2023-01-19T14:05:59.960Z,97792.03
2023-01-19T14:08:27.233Z,97788.38
2023-01-19T14:10:54.662Z,97787.09
2023-01-19T14:13:22.981Z,97784.00
2023-01-19T14:15:50.922Z,97786.56
2023-01-19T14:18:18.943Z,97788.09
2023-01-19T14:20:52.231Z,97792.22
2023-01-19T14:23:39.607Z,97802.84
2023-01-19T14:26:29.833Z,97786.53
2023-01-19T14:28:57.247Z,97805.81
2023-01-19T14:31:26.537Z,97804.22
2023-01-19T14:33:54.559Z,97806.00
2023-01-19T14:36:21.943Z,97799.09
2023-01-19T14:38:49.947Z,97811.69
2023-01-19T14:41:27.734Z,97815.03
2023-01-19T14:43:56.095Z,97805.44
2023-01-19T14:46:23.630Z,97805.16
2023-01-19T14:48:51.940Z,97817.53
2023-01-19T14:51:20.684Z,97839.47
2023-01-19T14:53:49.208Z,97843.75
2023-01-19T14:56:26.403Z,97857.75
2023-01-19T14:58:54.991Z,97874.63
2023-01-19T15:01:22.292Z,97894.97
2023-01-19T15:03:49.509Z,97896.53
2023-01-19T15:06:17.620Z,97892.13
2023-01-19T15:08:44.827Z,97876.19
2023-01-19T15:11:13.900Z,97867.25
2023-01-19T15:13:41.339Z,97868.72
2023-01-19T15:16:09.112Z,97873.81
2023-01-19T15:18:36.316Z,97858.50
2023-01-19T15:21:03.838Z,97857.38
2023-01-19T15:23:31.389Z,97860.41
2023-01-19T15:25:59.143Z,97869.91
2023-01-19T15:28:26.574Z,97864.31
2023-01-19T15:30:57.801Z,97875.47
2023-01-19T15:33:25.787Z,97890.37
2023-01-19T15:35:53.491Z,97894.75
2023-01-19T15:38:20.711Z,97901.28
2023-01-19T15:40:51.341Z,97886.09
2023-01-19T15:43:19.026Z,97895.19
2023-01-19T15:45:57.176Z,97900.72
2023-01-19T15:48:25.707Z,97907.63
2023-01-19T15:50:53.791Z,97922.47
2023-01-19T15:53:21.554Z,97920.41
2023-01-19T15:55:49.475Z,97926.78
2023-01-19T15:58:16.672Z,97923.94
2023-01-19T16:00:43.906Z,97927.13
2023-01-19T16:03:11.453Z,97925.66
2023-01-19T16:05:43.400Z,97932.16
2023-01-19T16:08:11.468Z,97937.31
2023-01-19T16:10:39.656Z,97947.00
2023-01-19T16:13:06.796Z,97959.56
2023-01-19T16:15:35.282Z,97968.00
2023-01-19T16:18:03.482Z,97965.34
2023-01-19T16:20:30.622Z,97987.13
2023-01-19T16:23:06.243Z,97987.13
2023-01-19T16:25:41.477Z,97986.31
2023-01-19T16:28:09.255Z,97993.47
2023-01-19T16:30:36.562Z,98000.72
2023-01-19T16:33:05.484Z,98013.00
2023-01-19T16:35:32.755Z,98021.81
2023-01-19T16:37:59.921Z,98035.19
2023-01-19T16:40:27.472Z,98026.97
2023-01-19T16:42:54.624Z,98032.06
2023-01-19T16:45:21.753Z,98037.72
2023-01-19T16:47:52.500Z,98046.22
2023-01-19T16:50:20.049Z,98053.84
2023-01-19T16:52:47.663Z,98058.00
2023-01-19T16:55:15.233Z,98069.72
2023-01-19T16:57:42.694Z,98067.56
2023-01-19T17:00:10.826Z,98072.44
2023-01-19T17:02:38.805Z,98066.53
2023-01-19T17:05:06.905Z,98070.16
2023-01-19T17:07:34.558Z,98076.44
2023-01-19T17:10:03.023Z,98071.50
2023-01-19T17:12:32.216Z,98082.63
2023-01-19T17:15:00.123Z,98103.63
2023-01-19T17:17:28.584Z,98098.06
2023-01-19T17:19:56.695Z,98098.91
2023-01-19T17:22:25.396Z,98103.00
2023-01-19T17:24:53.685Z,98104.91
2023-01-19T17:27:22.611Z,98108.72
2023-01-19T17:29:51.051Z,98114.91
2023-01-19T17:32:19.142Z,98108.50
2023-01-19T17:34:49.140Z,98107.84
2023-01-19T17:37:17.146Z,98097.31
2023-01-19T17:39:45.417Z,98097.53
2023-01-19T17:42:13.212Z,98091.03
2023-01-19T17:44:42.790Z,98098.03
2023-01-19T17:47:11.278Z,98107.88
2023-01-19T17:49:39.571Z,98110.03
2023-01-19T17:52:08.703Z,98108.28
2023-01-19T17:54:36.880Z,98112.03
2023-01-19T17:57:05.042Z,98112.13
2023-01-19T17:59:33.798Z,98124.66
2023-01-19T18:02:03.948Z,98126.00
2023-01-19T18:04:37.409Z,98149.84
2023-01-19T18:07:05.518Z,98141.91
2023-01-19T18:09:34.394Z,98162.47
2023-01-19T18:12:04.136Z,98144.09
2023-01-19T18:14:34.533Z,98155.97
2023-01-19T18:17:06.657Z,98155.28
2023-01-19T18:19:36.596Z,98146.91
2023-01-19T18:22:05.683Z,98151.47
2023-01-19T18:24:35.751Z,98150.53
2023-01-19T18:27:05.413Z,98161.75
2023-01-19T18:29:36.740Z,98158.41
2023-01-19T18:32:06.456Z,98158.75
2023-01-19T18:34:35.882Z,98157.44
2023-01-19T18:37:06.935Z,98159.91
2023-01-19T18:39:36.098Z,98173.38
2023-01-19T18:42:04.906Z,98160.88
2023-01-19T18:44:32.765Z,98166.50
2023-01-19T18:47:00.840Z,98159.38
2023-01-19T18:49:28.554Z,98160.12
2023-01-19T18:51:58.236Z,98150.47
2023-01-19T18:54:28.136Z,98152.88
2023-01-19T18:56:59.944Z,98165.31
2023-01-19T18:59:28.478Z,98160.59
2023-01-19T19:01:59.353Z,98159.03
2023-01-19T19:04:28.126Z,98159.53
2023-01-19T19:06:57.101Z,98174.25
2023-01-19T19:09:26.152Z,98182.09
2023-01-19T19:11:54.729Z,98186.53
2023-01-19T19:14:23.785Z,98172.31
2023-01-19T19:16:55.213Z,98177.47
2023-01-19T19:19:24.252Z,98195.53
2023-01-19T19:21:54.237Z,98191.69
2023-01-19T19:24:22.796Z,98194.59
2023-01-19T19:26:51.814Z,98213.53
2023-01-19T19:29:20.622Z,98217.06
2023-01-19T19:31:49.184Z,98215.34
2023-01-19T19:34:18.254Z,98220.97
2023-01-19T19:36:46.788Z,98224.75
2023-01-19T19:39:16.192Z,98224.56
2023-01-19T19:41:45.964Z,98235.97
2023-01-19T19:44:15.758Z,98240.97
2023-01-19T19:46:44.789Z,98240.03
2023-01-19T19:49:14.563Z,98250.59
2023-01-19T19:51:43.366Z,98254.66
2023-01-19T19:54:12.855Z,98245.44
2023-01-19T19:56:41.473Z,98251.41
2023-01-19T19:59:10.852Z,98250.84
2023-01-19T20:01:39.247Z,98245.72
2023-01-19T20:04:10.364Z,98252.28
2023-01-19T20:06:43.154Z,98242.06
2023-01-19T20:09:13.524Z,98238.97
2023-01-19T20:11:42.329Z,98237.28
2023-01-19T20:14:12.684Z,98225.66
2023-01-19T20:16:42.821Z,98239.28
2023-01-19T20:19:12.037Z,98241.81
2023-01-19T20:21:42.031Z,98246.91
2023-01-19T20:24:15.525Z,98265.56
2023-01-19T20:26:48.363Z,98250.81
2023-01-19T20:29:17.429Z,98246.97
2023-01-19T20:31:48.682Z,98245.47
2023-01-19T20:34:17.926Z,98240.56
2023-01-19T20:36:56.510Z,98234.44
2023-01-19T20:39:26.349Z,98231.53
2023-01-19T20:41:54.935Z,98235.44
2023-01-19T20:44:27.621Z,98236.03
2023-01-19T20:46:56.591Z,98242.66
2023-01-19T20:49:25.145Z,98226.69
2023-01-19T20:51:54.757Z,98226.72
2023-01-19T20:54:26.847Z,98229.06
2023-01-19T20:56:55.470Z,98232.19
2023-01-19T20:59:24.691Z,98238.41
2023-01-19T21:01:53.500Z,98221.62
2023-01-19T21:04:22.773Z,98234.78
2023-01-19T21:06:51.568Z,98234.84
2023-01-19T21:09:19.417Z,98232.72
2023-01-19T21:11:49.540Z,98239.00
2023-01-19T21:14:17.274Z,98246.34
2023-01-19T21:16:44.872Z,98239.44
2023-01-19T21:19:12.382Z,98240.81
2023-01-19T21:21:40.093Z,98251.41
2023-01-19T21:24:07.673Z,98244.06
2023-01-19T21:26:36.921Z,98242.50
2023-01-19T21:29:04.458Z,98251.81
2023-01-19T21:31:31.752Z,98253.84
2023-01-19T21:34:00.652Z,98259.81
2023-01-19T21:36:28.612Z,98269.03
2023-01-19T21:39:00.499Z,98290.38
2023-01-19T21:41:28.513Z,98281.44
2023-01-19T21:43:55.734Z,98284.00
2023-01-19T21:46:29.355Z,98277.19
2023-01-19T21:48:57.623Z,98291.88
2023-01-19T21:51:24.832Z,98304.69
2023-01-19T21:53:59.654Z,98325.38
2023-01-19T21:56:27.662Z,98354.72
2023-01-19T21:58:56.300Z,98385.87
2023-01-19T22:01:23.817Z,98406.06
2023-01-19T22:03:55.251Z,98400.91
2023-01-19T22:06:22.608Z,98383.75
2023-01-19T22:08:49.807Z,98368.88
2023-01-19T22:11:18.041Z,98353.88
2023-01-19T22:13:45.336Z,98334.94
2023-01-19T22:16:13.995Z,98330.63
2023-01-19T22:18:43.118Z,98323.87
2023-01-19T22:21:10.992Z,98333.28
2023-01-19T22:23:38.419Z,98335.72
2023-01-19T22:26:06.170Z,98337.56
2023-01-19T22:28:33.527Z,98335.81
2023-01-19T22:31:16.763Z,98325.09
2023-01-19T22:33:44.384Z,98335.84
2023-01-19T22:36:21.522Z,98333.41
2023-01-19T22:38:51.871Z,98333.38
2023-01-19T22:41:22.916Z,98340.19
2023-01-19T22:43:51.171Z,98340.16
2023-01-19T22:46:19.128Z,98338.59
2023-01-19T22:48:48.104Z,98334.94
2023-01-19T22:51:15.827Z,98330.59
2023-01-19T22:53:43.097Z,98318.75
2023-01-19T22:56:14.193Z,98313.53
2023-01-19T22:58:41.802Z,98320.47
2023-01-19T23:01:09.267Z,98332.53
2023-01-19T23:03:38.155Z,98326.84
2023-01-19T23:06:06.026Z,98325.75
2023-01-19T23:08:33.983Z,98314.00
2023-01-19T23:11:14.673Z,98308.81
2023-01-19T23:13:42.344Z,98306.44
2023-01-19T23:16:09.711Z,98297.41
2023-01-19T23:18:36.982Z,98278.66
2023-01-19T23:21:11.688Z,98285.47
2023-01-19T23:23:38.976Z,98274.16
2023-01-19T23:26:17.102Z,98272.38
2023-01-19T23:28:44.724Z,98272.84
2023-01-19T23:31:42.136Z,98275.53
2023-01-19T23:34:10.118Z,98274.38
2023-01-19T23:36:38.627Z,98262.69
2023-01-19T23:39:06.821Z,98282.59
2023-01-19T23:41:34.626Z,98295.53
2023-01-19T23:44:02.322Z,98309.31
2023-01-19T23:46:29.638Z,98319.44
2023-01-19T23:48:57.193Z,98319.91
2023-01-19T23:51:25.435Z,98331.09
2023-01-19T23:53:52.833Z,98333.34
2023-01-19T23:56:21.393Z,98333.59
2023-01-19T23:58:52.006Z,98317.44
